Time;durP1;ratioP1;P1;durP2;ratioP2;P2;SDS_P1;SDS_P2;PMS_P1;PMS_P2;Temp;Humidity;BMP_temperature;BMP_pressure;BME280_temperature;BME280_humidity;BME280_pressure;Samples;Min_cycle;Max_cycle;Signal;HPM_P1;HPM_P2
2024/04/07 00:00:22;;;;;;;6.87;2.90;;;19.40;99.90;;;;;;5097384;28;20456;-57
2024/04/07 00:02:51;;;;;;;4.90;2.30;;;19.30;99.90;;;;;;5097711;28;20518;-57
2024/04/07 00:05:17;;;;;;;6.23;2.40;;;19.30;99.90;;;;;;5097309;28;20461;-56
2024/04/07 00:07:45;;;;;;;4.30;2.80;;;19.30;99.90;;;;;;5097134;28;20913;-57
2024/04/07 00:10:11;;;;;;;4.50;2.30;;;19.30;99.90;;;;;;5097337;28;20460;-57
2024/04/07 00:12:39;;;;;;;4.80;2.50;;;19.40;99.90;;;;;;5097446;28;20463;-57
2024/04/07 00:15:07;;;;;;;6.03;2.70;;;19.30;99.90;;;;;;5097554;28;20934;-57
2024/04/07 00:17:36;;;;;;;6.37;2.27;;;19.30;99.90;;;;;;5097343;28;20456;-57
2024/04/07 00:20:03;;;;;;;4.20;2.70;;;19.30;99.90;;;;;;5097087;28;20510;-57
2024/04/07 00:22:30;;;;;;;6.60;2.97;;;19.30;99.90;;;;;;5097449;28;20726;-57
2024/04/07 00:24:57;;;;;;;8.73;2.47;;;19.30;99.90;;;;;;5096662;28;20457;-59
2024/04/07 00:27:26;;;;;;;4.60;2.50;;;19.40;99.90;;;;;;5096874;28;20771;-58
2024/04/07 00:29:52;;;;;;;3.33;2.33;;;19.40;99.90;;;;;;5096937;28;20916;-57
2024/04/07 00:32:20;;;;;;;7.03;2.50;;;19.40;99.90;;;;;;5097216;28;20909;-58
2024/04/07 00:34:49;;;;;;;3.87;2.80;;;19.40;99.90;;;;;;5097403;28;20460;-58
2024/04/07 00:37:17;;;;;;;4.60;2.83;;;19.50;99.90;;;;;;5097081;28;20484;-59
2024/04/07 00:39:43;;;;;;;4.10;2.40;;;19.50;99.90;;;;;;5096514;28;20492;-58
2024/04/07 00:42:11;;;;;;;6.47;2.63;;;19.50;99.90;;;;;;5097285;28;20466;-59
2024/04/07 00:44:38;;;;;;;6.83;2.60;;;19.60;99.90;;;;;;5101093;28;20882;-58
2024/04/07 00:47:05;;;;;;;5.10;2.80;;;19.50;99.90;;;;;;5100973;28;20506;-57
2024/04/07 00:49:34;;;;;;;4.40;2.50;;;19.50;99.90;;;;;;5100173;28;20459;-57
2024/04/07 00:52:03;;;;;;;5.10;2.87;;;19.50;99.90;;;;;;5100429;28;20456;-56
2024/04/07 00:54:29;;;;;;;4.37;2.60;;;19.40;99.90;;;;;;5100246;28;20491;-58
2024/04/07 00:56:57;;;;;;;9.13;3.03;;;19.40;99.90;;;;;;5100863;28;20835;-59
2024/04/07 00:59:23;;;;;;;4.23;2.47;;;19.40;99.90;;;;;;5100163;28;20492;-57
2024/04/07 01:01:50;;;;;;;5.53;2.60;;;19.30;99.90;;;;;;5100560;28;20770;-56
2024/04/07 01:04:17;;;;;;;6.73;3.20;;;19.30;99.90;;;;;;5100280;28;20807;-55
2024/04/07 01:06:44;;;;;;;6.87;3.60;;;19.40;99.90;;;;;;5100351;28;20452;-57
2024/04/07 01:09:12;;;;;;;6.80;2.80;;;19.30;99.90;;;;;;5100563;28;20875;-55
2024/04/07 01:11:40;;;;;;;5.03;2.57;;;19.30;99.90;;;;;;5100225;28;20534;-57
2024/04/07 01:14:06;;;;;;;4.20;2.43;;;19.40;99.90;;;;;;5099917;28;20491;-57
2024/04/07 01:16:33;;;;;;;4.57;2.60;;;19.30;99.90;;;;;;5100185;28;20937;-56
2024/04/07 01:19:00;;;;;;;8.47;2.43;;;19.30;99.90;;;;;;5100225;28;20560;-58
2024/04/07 01:21:27;;;;;;;6.50;2.80;;;19.40;99.90;;;;;;5100087;28;20509;-58
2024/04/07 01:23:56;;;;;;;7.30;3.20;;;19.40;99.90;;;;;;5099838;28;20452;-57
2024/04/07 01:26:24;;;;;;;7.40;3.07;;;19.40;99.90;;;;;;5099608;28;20470;-58
2024/04/07 01:28:50;;;;;;;4.60;2.83;;;19.40;99.90;;;;;;5099958;28;20452;-56
2024/04/07 01:31:18;;;;;;;7.13;2.77;;;19.40;99.90;;;;;;5099518;28;20461;-58
2024/04/07 01:33:44;;;;;;;6.27;2.70;;;19.40;99.90;;;;;;5099569;28;20919;-59
2024/04/07 01:36:12;;;;;;;10.03;2.60;;;19.40;99.90;;;;;;5099593;28;20456;-58
2024/04/07 01:38:38;;;;;;;3.63;2.30;;;19.50;99.90;;;;;;5099798;28;20527;-57
2024/04/07 01:41:07;;;;;;;6.90;3.20;;;19.50;99.90;;;;;;5099742;28;20456;-58
2024/04/07 01:43:33;;;;;;;5.90;3.07;;;19.50;99.90;;;;;;5099120;28;20456;-58
2024/04/07 01:46:03;;;;;;;4.60;2.40;;;19.50;99.90;;;;;;5099523;28;20499;-58
2024/04/07 01:48:29;;;;;;;6.47;2.77;;;19.50;99.90;;;;;;5099634;28;20456;-58
2024/04/07 01:50:57;;;;;;;8.30;2.70;;;19.60;99.90;;;;;;5099338;28;20509;-58
2024/04/07 01:53:23;;;;;;;5.30;2.60;;;19.60;99.90;;;;;;5099479;28;20464;-56
2024/04/07 01:55:51;;;;;;;4.23;2.50;;;19.60;99.90;;;;;;5098540;28;20480;-57
2024/04/07 01:58:18;;;;;;;3.30;2.07;;;19.60;99.90;;;;;;5099523;28;21005;-58
2024/04/07 02:00:45;;;;;;;4.17;2.40;;;19.60;99.90;;;;;;5099611;28;20460;-59
2024/04/07 02:03:12;;;;;;;5.27;2.80;;;19.60;99.90;;;;;;5099546;28;20550;-58
2024/04/07 02:05:39;;;;;;;9.70;3.00;;;19.60;99.90;;;;;;5099018;28;20467;-58
2024/04/07 02:08:06;;;;;;;4.93;2.40;;;19.60;99.90;;;;;;5098853;28;20471;-58
2024/04/07 02:10:33;;;;;;;4.50;2.50;;;19.60;99.90;;;;;;5099086;28;20456;-57
2024/04/07 02:12:59;;;;;;;8.50;2.60;;;19.50;99.90;;;;;;5098693;28;20484;-58
2024/04/07 02:15:29;;;;;;;7.43;3.40;;;19.50;99.90;;;;;;5098957;28;20461;-58
2024/04/07 02:17:55;;;;;;;3.07;2.60;;;19.40;99.90;;;;;;5098821;28;20461;-58
2024/04/07 02:20:22;;;;;;;6.43;2.90;;;19.40;99.90;;;;;;5098665;28;20518;-58
2024/04/07 02:22:48;;;;;;;8.00;2.70;;;19.40;99.90;;;;;;5098857;28;20824;-58
2024/04/07 02:25:16;;;;;;;5.43;2.50;;;19.40;99.90;;;;;;5099114;28;20505;-58
2024/04/07 02:27:42;;;;;;;8.40;2.80;;;19.30;99.90;;;;;;5098670;28;20484;-55
2024/04/07 02:30:09;;;;;;;5.90;2.90;;;19.30;99.90;;;;;;5099008;28;20444;-58
2024/04/07 02:32:37;;;;;;;4.20;2.60;;;19.30;99.90;;;;;;5098649;28;20769;-57
2024/04/07 02:35:05;;;;;;;6.10;2.93;;;19.30;99.90;;;;;;5098835;28;20460;-57
2024/04/07 02:37:31;;;;;;;4.10;3.00;;;19.30;99.90;;;;;;5098299;28;20492;-58
2024/04/07 02:39:59;;;;;;;7.50;3.20;;;19.30;99.90;;;;;;5098430;28;20544;-58
2024/04/07 02:42:25;;;;;;;4.47;2.37;;;19.30;99.90;;;;;;5098214;28;20908;-58
2024/04/07 02:50:23;;;;;;;10.80;3.43;;;19.30;99.90;;;;;;5097852;28;20435;-57
2024/04/07 02:52:51;;;;;;;8.23;3.10;;;19.30;99.90;;;;;;5098231;28;20767;-58
2024/04/07 02:55:18;;;;;;;9.47;3.43;;;19.30;99.90;;;;;;5097822;28;20460;-57
2024/04/07 02:57:44;;;;;;;6.40;3.60;;;19.20;99.90;;;;;;5097349;28;20461;-59
2024/04/07 03:00:13;;;;;;;5.80;3.07;;;19.10;99.90;;;;;;5097958;28;20491;-56
2024/04/07 03:02:43;;;;;;;8.30;2.97;;;19.10;99.90;;;;;;5098298;28;20460;-57
2024/04/07 03:05:10;;;;;;;4.43;3.40;;;19.00;99.90;;;;;;5098227;28;20460;-58
2024/04/07 03:07:37;;;;;;;12.67;3.20;;;18.90;99.90;;;;;;5097444;28;20830;-56
2024/04/07 03:10:06;;;;;;;5.50;2.83;;;18.90;99.90;;;;;;5097849;28;20762;-57
2024/04/07 03:12:32;;;;;;;5.03;3.13;;;18.80;99.90;;;;;;5097873;28;20800;-58
2024/04/07 03:15:03;;;;;;;7.67;3.37;;;18.80;99.90;;;;;;5097989;28;20460;-58
2024/04/07 03:17:29;;;;;;;9.17;3.47;;;18.70;99.90;;;;;;5097810;28;20464;-54
2024/04/07 03:19:58;;;;;;;5.63;2.80;;;18.60;99.90;;;;;;5097918;28;20491;-58
2024/04/07 03:22:24;;;;;;;8.40;3.20;;;18.60;99.90;;;;;;5097651;28;20492;-58
2024/04/07 03:24:51;;;;;;;6.00;2.97;;;18.60;99.90;;;;;;5097821;28;20488;-57
2024/04/07 03:27:18;;;;;;;6.30;3.63;;;18.50;99.90;;;;;;5097032;28;20943;-57
2024/04/07 03:29:45;;;;;;;8.77;3.50;;;18.40;99.90;;;;;;5097752;28;20459;-58
2024/04/07 03:32:12;;;;;;;11.67;4.00;;;18.30;99.90;;;;;;5097652;28;20495;-58
2024/04/07 03:34:39;;;;;;;9.40;3.20;;;18.30;99.90;;;;;;5097906;28;20873;-58
2024/04/07 03:37:08;;;;;;;7.40;3.70;;;18.20;99.90;;;;;;5097840;28;20499;-58
2024/04/07 03:39:35;;;;;;;7.00;3.17;;;18.10;99.90;;;;;;5097253;28;20493;-57
2024/04/07 03:42:02;;;;;;;6.50;3.97;;;18.10;1.00;;;;;;5097441;28;20931;-58
2024/04/07 03:44:29;;;;;;;7.50;3.40;;;18.00;1.00;;;;;;5097133;28;20457;-57
2024/04/07 03:46:57;;;;;;;5.33;3.10;;;17.90;1.00;;;;;;5097457;28;20456;-56
2024/04/07 03:49:25;;;;;;;7.50;3.37;;;17.90;1.00;;;;;;5097032;28;20757;-57
2024/04/07 03:51:52;;;;;;;5.80;3.60;;;17.80;1.00;;;;;;5097123;28;20759;-57
2024/04/07 03:54:20;;;;;;;10.67;3.70;;;17.80;1.00;;;;;;5097157;28;20464;-58
2024/04/07 03:56:47;;;;;;;6.27;3.30;;;17.70;33.40;;;;;;5097702;28;21041;-57
2024/04/07 03:59:13;;;;;;;8.00;3.60;;;17.60;99.90;;;;;;5096848;28;20587;-57
2024/04/07 04:01:41;;;;;;;6.70;2.93;;;17.60;99.90;;;;;;5097335;28;20456;-59
2024/04/07 04:04:08;;;;;;;8.17;3.03;;;17.60;99.90;;;;;;5097217;28;20460;-56
2024/04/07 04:06:35;;;;;;;6.37;3.83;;;17.50;99.90;;;;;;5097365;28;20501;-63
2024/04/07 04:09:01;;;;;;;10.83;4.17;;;17.50;99.90;;;;;;5097189;28;20479;-63
2024/04/07 04:11:30;;;;;;;10.07;4.00;;;17.40;1.00;;;;;;5097025;28;20456;-63
2024/04/07 04:13:56;;;;;;;9.70;3.83;;;17.40;1.00;;;;;;5097204;28;20513;-63
2024/04/07 04:16:24;;;;;;;11.67;3.53;;;17.30;1.00;;;;;;5097167;28;20897;-63
2024/04/07 04:18:51;;;;;;;6.77;3.50;;;17.30;1.00;;;;;;5100353;28;20492;-63
2024/04/07 04:21:19;;;;;;;14.47;4.13;;;17.30;1.00;;;;;;5101359;28;20765;-63
2024/04/07 04:23:48;;;;;;;4.60;3.47;;;17.20;1.00;;;;;;5100732;28;20456;-63
2024/04/07 04:26:15;;;;;;;9.83;3.47;;;17.30;1.00;;;;;;5100979;28;20929;-63
2024/04/07 04:28:44;;;;;;;6.40;3.43;;;17.20;1.00;;;;;;5100908;28;20556;-63
2024/04/07 04:31:10;;;;;;;7.43;3.30;;;17.20;1.00;;;;;;5100490;28;20547;-63
2024/04/07 04:33:38;;;;;;;8.73;3.60;;;17.20;1.00;;;;;;5100957;28;20905;-63
2024/04/07 04:36:12;;;;;;;7.83;4.20;;;17.20;1.00;;;;;;5100850;28;20458;-63
2024/04/07 04:38:39;;;;;;;6.87;3.83;;;17.10;1.00;;;;;;5100792;28;20558;-63
2024/04/07 04:41:05;;;;;;;9.53;3.60;;;17.20;1.00;;;;;;5100774;28;20823;-63
2024/04/07 04:43:32;;;;;;;11.50;3.80;;;17.10;1.00;;;;;;5100531;28;20456;-63
2024/04/07 04:46:04;;;;;;;8.00;3.67;;;17.00;1.00;;;;;;5100335;28;20462;-63
2024/04/07 04:48:33;;;;;;;4.60;3.30;;;17.00;1.00;;;;;;5100152;28;20486;-63
2024/04/07 04:50:59;;;;;;;6.33;2.97;;;17.00;1.00;;;;;;5100754;28;20466;-63
2024/04/07 04:53:27;;;;;;;10.07;3.77;;;17.00;1.40;;;;;;5100210;28;20498;-63
2024/04/07 04:55:53;;;;;;;11.23;3.90;;;17.00;56.00;;;;;;5100030;28;20463;-63
2024/04/07 04:58:20;;;;;;;6.53;3.43;;;16.90;95.90;;;;;;5100503;28;20869;-63
2024/04/07 05:00:47;;;;;;;6.90;3.20;;;16.90;99.90;;;;;;5099472;28;20524;-63
2024/04/07 05:03:15;;;;;;;5.80;3.80;;;16.90;99.90;;;;;;5100236;28;20452;-63
2024/04/07 05:05:42;;;;;;;9.00;3.73;;;16.90;99.90;;;;;;5099935;28;20487;-63
2024/04/07 05:08:09;;;;;;;11.63;3.37;;;16.80;99.90;;;;;;5100200;28;20452;-63
2024/04/07 05:10:35;;;;;;;8.77;3.50;;;16.80;99.90;;;;;;5099913;28;20554;-63
2024/04/07 05:13:02;;;;;;;9.03;3.40;;;16.80;99.90;;;;;;5099996;28;20501;-63
2024/04/07 05:15:28;;;;;;;6.47;3.53;;;16.80;99.90;;;;;;5099643;28;20513;-63
2024/04/07 05:17:56;;;;;;;8.13;3.77;;;16.80;99.90;;;;;;5100224;28;20480;-63
2024/04/07 05:20:23;;;;;;;7.80;3.50;;;16.80;99.90;;;;;;5099714;28;20528;-63
2024/04/07 05:22:51;;;;;;;7.77;3.60;;;16.80;99.90;;;;;;5100202;28;20467;-63
2024/04/07 05:25:18;;;;;;;5.40;2.90;;;16.80;99.90;;;;;;5099210;28;20449;-63
2024/04/07 05:27:45;;;;;;;5.70;3.67;;;16.80;1.00;;;;;;5099690;28;20921;-62
2024/04/07 05:30:13;;;;;;;12.70;4.53;;;16.80;1.00;;;;;;5098761;28;20452;-63
2024/04/07 05:32:40;;;;;;;9.10;3.53;;;16.80;1.00;;;;;;5099846;28;20768;-63
2024/04/07 05:35:08;;;;;;;8.90;3.93;;;16.80;1.00;;;;;;5099766;28;20467;-63
2024/04/07 05:37:36;;;;;;;5.50;3.53;;;16.80;99.90;;;;;;5099751;28;20460;-63
2024/04/07 05:40:05;;;;;;;8.40;3.73;;;16.80;1.00;;;;;;5099288;28;20492;-63
2024/04/07 05:42:32;;;;;;;4.90;3.27;;;16.80;1.00;;;;;;5099972;28;20543;-63
2024/04/07 05:44:58;;;;;;;7.40;3.57;;;16.80;1.00;;;;;;5099562;28;20829;-63
2024/04/07 05:47:25;;;;;;;8.73;3.73;;;16.80;1.00;;;;;;5099774;28;20492;-63
2024/04/07 05:49:52;;;;;;;7.23;3.57;;;16.80;1.00;;;;;;5099294;28;20936;-63
2024/04/07 05:52:19;;;;;;;12.50;4.10;;;16.80;1.00;;;;;;5099460;28;20901;-63
2024/04/07 05:54:47;;;;;;;7.93;3.50;;;16.80;1.00;;;;;;5099367;28;20456;-63
2024/04/07 05:57:14;;;;;;;6.50;3.33;;;16.70;1.00;;;;;;5099673;28;20452;-63
2024/04/07 05:59:40;;;;;;;6.43;3.40;;;16.70;1.00;;;;;;5098995;28;20586;-63
2024/04/07 06:02:08;;;;;;;6.63;3.50;;;16.70;99.90;;;;;;5098756;28;20479;-63
2024/04/07 06:04:34;;;;;;;4.63;3.80;;;16.70;1.00;;;;;;5099461;28;20490;-63
2024/04/07 06:07:02;;;;;;;8.20;3.57;;;16.70;1.00;;;;;;5098535;28;20467;-63
2024/04/07 06:09:28;;;;;;;8.03;3.23;;;16.60;1.00;;;;;;5097730;28;20495;-63
2024/04/07 06:11:56;;;;;;;10.30;3.77;;;16.70;1.00;;;;;;5098053;28;20927;-63
2024/04/07 06:14:23;;;;;;;5.27;3.07;;;16.70;1.00;;;;;;5097976;28;20471;-62
2024/04/07 06:16:50;;;;;;;7.30;3.30;;;16.70;1.00;;;;;;5098308;28;20512;-62
2024/04/07 06:19:16;;;;;;;6.60;2.80;;;16.70;1.00;;;;;;5097529;28;20856;-62
2024/04/07 06:21:44;;;;;;;6.13;3.40;;;16.70;1.00;;;;;;5098499;28;20916;-63
2024/04/07 06:24:10;;;;;;;6.60;2.47;;;16.80;30.20;;;;;;5098215;28;20456;-63
2024/04/07 06:26:37;;;;;;;6.90;3.10;;;16.70;96.30;;;;;;5098390;28;20460;-63
2024/04/07 06:29:05;;;;;;;5.40;2.70;;;16.80;99.90;;;;;;5098412;28;20506;-63
2024/04/07 06:31:32;;;;;;;9.43;3.23;;;16.80;99.90;;;;;;5098572;28;20775;-63
2024/04/07 06:33:58;;;;;;;5.80;3.00;;;16.80;99.90;;;;;;5098222;28;20460;-63
2024/04/07 06:36:25;;;;;;;7.40;3.00;;;16.80;99.90;;;;;;5098553;28;20547;-63
2024/04/07 06:38:51;;;;;;;7.00;3.90;;;16.80;99.90;;;;;;5098154;28;20902;-63
2024/04/07 06:41:19;;;;;;;6.77;3.13;;;16.80;99.90;;;;;;5097985;28;20480;-63
2024/04/07 06:43:45;;;;;;;4.93;2.70;;;16.80;99.90;;;;;;5098089;28;20461;-63
2024/04/07 06:46:14;;;;;;;6.13;2.97;;;16.80;99.90;;;;;;5098244;28;20520;-63
2024/04/07 06:48:40;;;;;;;3.93;2.57;;;16.90;99.90;;;;;;5098193;28;20902;-63
2024/04/07 06:51:07;;;;;;;6.70;3.13;;;17.00;99.90;;;;;;5098538;28;20453;-63
2024/04/07 06:53:33;;;;;;;4.27;2.20;;;17.00;99.90;;;;;;5098030;28;20458;-63
2024/04/07 06:56:00;;;;;;;8.33;3.63;;;17.00;99.90;;;;;;5098064;28;20517;-63
2024/04/07 06:58:26;;;;;;;5.47;3.17;;;17.00;1.00;;;;;;5096442;28;20554;-63
2024/04/07 07:00:54;;;;;;;8.43;3.53;;;17.10;1.00;;;;;;5109796;28;20490;-63
2024/04/07 07:03:21;;;;;;;5.30;2.57;;;17.10;1.00;;;;;;5116439;28;20854;-63
2024/04/07 07:05:49;;;;;;;6.63;3.00;;;17.20;1.00;;;;;;5116901;28;20530;-63
2024/04/07 07:08:15;;;;;;;6.10;3.03;;;17.40;1.00;;;;;;5116271;28;20477;-63
2024/04/07 07:10:52;;;;;;;7.73;3.23;;;17.60;99.90;;;;;;5116786;28;20996;-63
2024/04/07 07:13:18;;;;;;;3.80;2.40;;;17.90;99.90;;;;;;5116333;28;20810;-62
2024/04/07 07:15:46;;;;;;;7.17;2.70;;;17.90;99.90;;;;;;5116850;28;20513;-62
2024/04/07 07:18:12;;;;;;;5.20;2.70;;;18.10;99.90;;;;;;5116287;28;20455;-63
2024/04/07 07:20:40;;;;;;;3.93;2.50;;;18.30;99.90;;;;;;5116669;28;20506;-61
2024/04/07 07:23:07;;;;;;;6.30;2.77;;;18.60;99.90;;;;;;5116614;28;20554;-62
2024/04/07 07:25:34;;;;;;;3.73;2.73;;;18.70;99.90;;;;;;5116714;28;20733;-63
2024/04/07 07:28:00;;;;;;;6.97;2.90;;;18.70;1.00;;;;;;5116999;28;20486;-64
2024/04/07 07:30:27;;;;;;;10.57;3.17;;;18.70;1.00;;;;;;5117961;28;20469;-63
2024/04/07 07:32:54;;;;;;;5.27;2.80;;;18.60;1.00;;;;;;5117915;28;20459;-63
2024/04/07 07:35:21;;;;;;;4.90;3.00;;;18.40;1.00;;;;;;5117893;28;20546;-63
2024/04/07 07:37:49;;;;;;;5.10;2.70;;;18.30;1.00;;;;;;5117810;28;20461;-63
2024/04/07 07:40:16;;;;;;;5.10;2.93;;;18.30;1.00;;;;;;5117749;28;20483;-63
2024/04/07 07:42:42;;;;;;;8.90;2.47;;;18.20;1.00;;;;;;5117787;28;20455;-63
2024/04/07 07:45:10;;;;;;;3.60;2.33;;;18.30;1.00;;;;;;5118182;28;20570;-63
2024/04/07 07:47:36;;;;;;;4.60;2.93;;;18.20;1.00;;;;;;5117675;28;20463;-63
2024/04/07 07:50:04;;;;;;;7.37;2.77;;;18.10;1.00;;;;;;5117733;28;20452;-64
2024/04/07 07:52:32;;;;;;;4.90;2.50;;;18.10;1.00;;;;;;5117056;28;20508;-63
2024/04/07 07:55:01;;;;;;;5.17;2.73;;;18.10;1.00;;;;;;5117196;28;20460;-63
2024/04/07 07:57:27;;;;;;;6.13;2.90;;;18.10;1.00;;;;;;5116181;28;20783;-63
2024/04/07 07:59:55;;;;;;;8.30;3.20;;;18.10;1.00;;;;;;5115775;28;20518;-63
2024/04/07 08:02:22;;;;;;;6.80;3.00;;;18.10;1.00;;;;;;5116263;28;20452;-63
2024/04/07 08:04:49;;;;;;;8.00;2.80;;;18.10;1.00;;;;;;5116075;28;20900;-63
2024/04/07 08:07:16;;;;;;;4.10;2.53;;;18.10;1.00;;;;;;5116152;28;20455;-63
2024/04/07 08:09:43;;;;;;;5.17;2.60;;;18.10;1.00;;;;;;5115626;28;20452;-63
2024/04/07 08:12:12;;;;;;;6.50;2.60;;;18.10;1.00;;;;;;5116695;28;20462;-63
2024/04/07 08:14:39;;;;;;;3.73;2.53;;;18.10;1.00;;;;;;5117808;28;20463;-63
2024/04/07 08:17:07;;;;;;;5.50;2.70;;;18.20;1.00;;;;;;5117806;28;20463;-63
2024/04/07 08:19:35;;;;;;;4.33;2.50;;;18.20;1.00;;;;;;5116903;28;20560;-63
2024/04/07 08:22:03;;;;;;;4.73;2.67;;;18.30;1.00;;;;;;5117803;28;20513;-63
2024/04/07 08:24:30;;;;;;;5.60;2.80;;;18.40;1.00;;;;;;5117215;28;20455;-63
2024/04/07 08:26:56;;;;;;;6.90;2.40;;;18.40;99.90;;;;;;5116989;28;20585;-63
2024/04/07 08:29:25;;;;;;;5.20;2.87;;;18.50;99.90;;;;;;5117243;28;20455;-62
2024/04/07 08:31:52;;;;;;;8.43;2.97;;;18.60;99.90;;;;;;5117212;28;20495;-63
2024/04/07 08:34:20;;;;;;;5.40;2.37;;;18.80;1.00;;;;;;5117471;28;20948;-62
2024/04/07 08:36:48;;;;;;;5.23;3.00;;;19.20;99.90;;;;;;5117430;28;20459;-63
2024/04/07 08:39:15;;;;;;;8.20;2.90;;;19.60;99.90;;;;;;5117691;28;20451;-62
2024/04/07 08:41:45;;;;;;;4.07;2.67;;;19.90;99.90;;;;;;5117172;28;20928;-63
2024/04/07 08:44:13;;;;;;;3.47;2.37;;;19.80;99.90;;;;;;5117339;28;20489;-63
2024/04/07 08:46:44;;;;;;;5.57;2.80;;;19.80;99.90;;;;;;5097039;28;20460;-64
2024/04/07 08:49:11;;;;;;;5.07;2.80;;;19.90;99.90;;;;;;5096664;28;20486;-61
2024/04/07 08:51:41;;;;;;;5.77;2.83;;;20.00;99.90;;;;;;5095653;28;20492;-63
2024/04/07 08:54:08;;;;;;;4.77;2.80;;;20.20;99.90;;;;;;5096543;28;20456;-63
2024/04/07 08:56:39;;;;;;;4.33;2.90;;;20.30;21.70;;;;;;5097985;28;20466;-63
2024/04/07 08:59:06;;;;;;;6.30;3.00;;;20.40;1.00;;;;;;5097807;28;20491;-63
2024/04/07 09:01:34;;;;;;;4.70;2.50;;;20.30;1.00;;;;;;5097607;28;20528;-63
2024/04/07 09:04:02;;;;;;;5.10;2.67;;;20.40;1.00;;;;;;5096634;28;20460;-63
2024/04/07 09:06:31;;;;;;;8.30;3.20;;;20.40;1.00;;;;;;5100549;28;20464;-64
2024/04/07 09:08:58;;;;;;;9.57;3.17;;;20.60;1.00;;;;;;5100207;28;21000;-62
2024/04/07 09:11:26;;;;;;;3.57;2.40;;;21.00;1.00;;;;;;5100243;28;20484;-63
2024/04/07 09:13:52;;;;;;;4.53;2.40;;;21.30;1.00;;;;;;5100546;28;20738;-63
2024/04/07 09:16:20;;;;;;;4.00;2.70;;;21.50;1.00;;;;;;5100284;28;20821;-63
2024/04/07 09:18:46;;;;;;;5.60;2.10;;;21.20;1.00;;;;;;5101580;28;20896;-63
2024/04/07 09:21:19;;;;;;;5.30;2.80;;;21.20;1.00;;;;;;5102133;28;20819;-63
2024/04/07 09:23:46;;;;;;;4.10;2.90;;;21.40;1.00;;;;;;5101313;28;20456;-64
2024/04/07 09:26:14;;;;;;;4.30;2.40;;;21.50;1.00;;;;;;5100217;28;20924;-63
2024/04/07 09:28:41;;;;;;;4.77;2.60;;;21.30;1.00;;;;;;5099819;28;20480;-63
2024/04/07 09:31:09;;;;;;;3.80;2.40;;;21.10;1.00;;;;;;5100811;28;20459;-63
2024/04/07 09:33:35;;;;;;;4.30;2.37;;;21.00;1.00;;;;;;5099352;28;20456;-64
2024/04/07 09:36:03;;;;;;;3.30;2.20;;;20.90;1.00;;;;;;5099871;28;20509;-64
2024/04/07 09:38:31;;;;;;;3.60;2.20;;;20.90;1.00;;;;;;5099705;28;20453;-62
2024/04/07 09:40:59;;;;;;;2.70;2.50;;;20.90;1.00;;;;;;5099877;28;20546;-63
2024/04/07 09:43:27;;;;;;;4.53;2.70;;;20.90;1.00;;;;;;5099561;28;20847;-63
2024/04/07 09:45:56;;;;;;;5.33;3.20;;;21.20;1.00;;;;;;5099579;28;20484;-62
2024/04/07 09:48:24;;;;;;;5.80;3.00;;;21.00;1.00;;;;;;5099443;28;20900;-63
2024/04/07 09:50:58;;;;;;;2.90;2.00;;;21.10;1.00;;;;;;5099501;28;20475;-63
2024/04/07 09:53:35;;;;;;;5.13;2.80;;;21.20;1.00;;;;;;5099671;28;20467;-64
2024/04/07 09:56:05;;;;;;;5.47;3.40;;;21.00;1.00;;;;;;5099391;28;20460;-64
2024/04/07 09:58:32;;;;;;;6.27;2.77;;;20.80;1.00;;;;;;5099261;28;20460;-63
2024/04/07 10:00:59;;;;;;;3.87;2.73;;;20.90;1.00;;;;;;5099241;28;20484;-63
2024/04/07 10:03:26;;;;;;;5.70;2.70;;;20.80;1.00;;;;;;5099084;28;20456;-63
2024/04/07 10:05:53;;;;;;;4.57;2.57;;;20.80;1.00;;;;;;5099292;28;20460;-64
2024/04/07 10:08:20;;;;;;;3.70;1.83;;;20.90;1.00;;;;;;5098641;28;20456;-63
2024/04/07 10:10:49;;;;;;;5.03;2.90;;;21.00;1.00;;;;;;5099409;28;20452;-63
2024/04/07 10:13:23;;;;;;;3.20;2.20;;;21.40;1.00;;;;;;5099287;28;20457;-63
2024/04/07 10:15:54;;;;;;;4.57;2.70;;;21.70;1.00;;;;;;5098601;28;20467;-64
2024/04/07 10:18:20;;;;;;;4.97;2.30;;;22.20;1.00;;;;;;5098916;28;20468;-64
2024/04/07 10:20:53;;;;;;;5.10;2.13;;;23.00;1.90;;;;;;5099424;28;20484;-63
2024/04/07 10:23:20;;;;;;;5.60;2.90;;;23.80;99.90;;;;;;5097462;28;20460;-63
2024/04/07 10:25:50;;;;;;;6.20;2.47;;;23.90;99.90;;;;;;5098868;28;20486;-64
2024/04/07 10:28:16;;;;;;;5.30;2.57;;;23.90;99.90;;;;;;5098392;28;20485;-64
2024/04/07 10:30:51;;;;;;;3.83;2.40;;;23.70;1.00;;;;;;5098812;28;20449;-63
2024/04/07 10:33:21;;;;;;;3.90;2.20;;;23.20;99.90;;;;;;5098320;28;20521;-64
2024/04/07 10:35:57;;;;;;;3.10;2.33;;;22.90;99.90;;;;;;5098481;28;20460;-63
2024/04/07 10:38:23;;;;;;;4.90;2.70;;;22.80;99.90;;;;;;5098094;28;20455;-64
2024/04/07 10:40:57;;;;;;;4.27;2.87;;;22.60;99.90;;;;;;5098767;28;20484;-64
2024/04/07 10:43:24;;;;;;;4.40;3.27;;;22.00;99.90;;;;;;5098433;28;20461;-63
2024/04/07 10:45:51;;;;;;;4.27;3.20;;;21.80;99.90;;;;;;5098193;28;20460;-64
2024/04/07 10:48:18;;;;;;;4.17;2.33;;;21.60;99.90;;;;;;5098347;28;20564;-65
2024/04/07 10:50:45;;;;;;;4.43;2.60;;;21.40;99.90;;;;;;5097688;28;20452;-63
2024/04/07 10:53:14;;;;;;;4.63;2.00;;;21.30;99.90;;;;;;5098420;28;20452;-64
2024/04/07 10:55:41;;;;;;;2.90;1.97;;;21.20;99.90;;;;;;5097765;28;20479;-63
2024/04/07 10:58:11;;;;;;;4.83;1.87;;;21.10;99.90;;;;;;5098160;28;20874;-63
2024/04/07 11:00:40;;;;;;;5.47;2.00;;;21.20;65.50;;;;;;5098125;28;20933;-63
2024/04/07 11:03:08;;;;;;;3.50;2.13;;;21.40;99.90;;;;;;5098087;28;20464;-65
2024/04/07 11:05:36;;;;;;;5.37;1.97;;;21.60;99.90;;;;;;5097773;28;20456;-64
2024/04/07 11:08:02;;;;;;;4.23;2.70;;;21.80;99.90;;;;;;5097616;28;20509;-63
2024/04/07 11:10:37;;;;;;;3.87;2.63;;;21.90;99.90;;;;;;5098042;28;20792;-63
2024/04/07 11:13:04;;;;;;;2.67;2.07;;;21.90;99.90;;;;;;5095839;28;20487;-64
2024/04/07 11:15:33;;;;;;;2.90;2.07;;;22.10;99.90;;;;;;5097154;28;20555;-63
2024/04/07 11:18:00;;;;;;;3.60;2.33;;;22.30;97.90;;;;;;5097340;28;20799;-63
2024/04/07 11:20:27;;;;;;;4.67;2.50;;;22.70;99.90;;;;;;5096185;28;20487;-64
2024/04/07 11:22:54;;;;;;;4.73;2.00;;;23.10;99.90;;;;;;5095731;28;20457;-62
2024/04/07 11:25:21;;;;;;;3.67;2.37;;;23.40;99.90;;;;;;5096918;28;20554;-64
2024/04/07 11:27:48;;;;;;;4.53;2.47;;;23.50;99.90;;;;;;5096233;28;20516;-62
2024/04/07 11:30:15;;;;;;;4.53;2.70;;;23.60;99.90;;;;;;5098040;28;20792;-62
2024/04/07 11:32:43;;;;;;;3.83;2.53;;;24.20;1.00;;;;;;5097836;28;20490;-63
2024/04/07 11:35:11;;;;;;;4.90;2.20;;;24.40;1.00;;;;;;5097973;28;20970;-63
2024/04/07 11:37:37;;;;;;;3.00;2.20;;;25.00;1.00;;;;;;5098815;28;20918;-63
2024/04/07 11:40:07;;;;;;;3.67;2.10;;;25.10;1.00;;;;;;5097678;28;20510;-63
2024/04/07 11:42:33;;;;;;;3.20;1.73;;;25.10;1.00;;;;;;5098735;28;20916;-64
2024/04/07 11:45:04;;;;;;;4.60;2.30;;;24.90;1.00;;;;;;5097637;28;20457;-63
2024/04/07 11:47:30;;;;;;;3.10;1.90;;;24.80;1.00;;;;;;5097962;28;20874;-64
2024/04/07 11:49:59;;;;;;;2.73;2.07;;;24.50;1.00;;;;;;5098057;28;20803;-63
2024/04/07 11:52:27;;;;;;;3.60;2.20;;;24.10;1.00;;;;;;5097879;28;20815;-62
2024/04/07 11:54:53;;;;;;;2.63;2.00;;;24.50;1.00;;;;;;5097380;28;20926;-62
2024/04/07 11:57:21;;;;;;;3.20;2.27;;;24.70;1.00;;;;;;5097296;28;20460;-63
2024/04/07 11:59:47;;;;;;;3.00;2.20;;;24.80;1.00;;;;;;5097231;28;20912;-63
2024/04/07 12:02:15;;;;;;;3.23;2.40;;;24.80;1.00;;;;;;5097373;28;20492;-63
2024/04/07 12:04:42;;;;;;;4.23;2.57;;;24.30;1.00;;;;;;5098082;28;20460;-63
2024/04/07 12:07:11;;;;;;;2.60;2.20;;;24.30;1.00;;;;;;5097607;28;20456;-63
2024/04/07 12:09:39;;;;;;;4.63;2.40;;;24.60;1.00;;;;;;5096376;28;20460;-63
2024/04/07 12:12:09;;;;;;;3.40;2.43;;;24.90;1.00;;;;;;5095306;28;20518;-62
2024/04/07 12:14:36;;;;;;;2.50;2.30;;;24.90;1.00;;;;;;5095565;28;20909;-62
2024/04/07 12:17:04;;;;;;;4.30;2.00;;;25.10;1.00;;;;;;5096679;28;20467;-63
2024/04/07 12:19:31;;;;;;;2.40;1.80;;;25.20;1.00;;;;;;5092335;28;20551;-62
2024/04/07 12:21:58;;;;;;;3.57;2.20;;;25.40;1.00;;;;;;5094681;28;20480;-63
2024/04/07 12:24:26;;;;;;;2.70;1.77;;;24.90;1.00;;;;;;5095087;28;20456;-62
2024/04/07 12:26:54;;;;;;;2.43;1.97;;;24.50;1.00;;;;;;5095371;28;20476;-62
2024/04/07 12:29:21;;;;;;;3.43;2.20;;;24.60;1.00;;;;;;5095289;28;20460;-62
2024/04/07 12:31:48;;;;;;;4.40;2.50;;;24.70;1.00;;;;;;5095493;28;20456;-63
2024/04/07 12:34:15;;;;;;;2.20;1.90;;;24.70;1.00;;;;;;5094473;28;20453;-62
2024/04/07 12:36:43;;;;;;;3.30;2.37;;;24.70;1.00;;;;;;5094460;28;20464;-62
2024/04/07 12:39:11;;;;;;;3.60;2.73;;;23.80;1.00;;;;;;5097324;28;20452;-64
2024/04/07 12:41:40;;;;;;;3.60;2.30;;;23.80;1.00;;;;;;5100950;28;20488;-62
2024/04/07 12:44:07;;;;;;;3.77;2.50;;;23.50;1.00;;;;;;5100851;28;20932;-63
2024/04/07 12:46:35;;;;;;;2.57;2.30;;;23.60;1.00;;;;;;5102068;28;20463;-62
2024/04/07 12:49:02;;;;;;;5.97;2.07;;;24.20;1.00;;;;;;5102830;28;20521;-62
2024/04/07 12:51:30;;;;;;;6.13;2.37;;;24.70;1.00;;;;;;5099407;28;20455;-63
2024/04/07 12:53:58;;;;;;;4.00;2.67;;;25.10;1.00;;;;;;5100174;28;20456;-62
2024/04/07 12:56:25;;;;;;;4.20;2.20;;;25.40;1.00;;;;;;5100171;28;20543;-62